KBGR Airport Information

Runway Information
Runway 15 Length 11440 ft width 200 ft
Elevation 192 ft Threshold 0 ft Heading 134
Runway 33 Length 11440 ft Width 200 ft
Elevation 163 ft Threshold 0 ft Heading 314
Airport Frequencies
Type A/D Name APP/DEP Frequency 118.925 MHZ
Type ASOS Name ASOS Frequency 127.75 MHZ
Type ATIS Name ATIS Frequency 127.75 MHZ
Type CLD Name CLNC DEL Frequency 135.9 MHZ
Type GND Name GND Frequency 121.9 MHZ
Type MISC Name ARNG OPS Frequency 41.2 MHZ
Type OPS Name ANG OPS Frequency 31.1 MHZ
Type RDO Name RDO Frequency 122.2 MHZ
Type TWR Name TWR Frequency 120.7 MHZ
Type UNIC Name UNICOM Frequency 122.95 MHZ
Airport Navaids
Type NDB Name Totte Frequency 227 KHZ
Type VORTAC Name Bangor Frequency 114800 KHZ
Airport Weather Information & NOTAM
ADDS - METARS form results

(0712 UTC 26 November 2020)
Data provider http://aviationweather.gov/metar/data/
 
METAR text: KBGR 260706Z 00000KT 1/4SM R15/1800V2400FT FZFG VV002 M01/M01 A3023 RMK AO2 T10061006
Conditions at: KBGR (BANGOR , ME, US) observed 0706 UTC 26 November 2020
Temperature: -0.6°C (31°F)
Dewpoint: -0.6°C (31°F) [RH = 100%]
Pressure (altimeter): 30.23 inches Hg (1023.8 mb)
Winds: calm
Visibility: 0.25 miles (0.40 km)
Ceiling: indefinite ceiling with vertical visibility of 200 feet AGL
Clouds: obscured sky
Weather: FZFG  (freezing fog)

METAR text: KBGR 260653Z 00000KT 1/2SM R15/1800V2000FT FZFG VV002 M01/M01 A3022 RMK AO2 SLP238 T10061011
Conditions at: KBGR (BANGOR , ME, US) observed 0653 UTC 26 November 2020
Temperature: -0.6°C (31°F)
Dewpoint: -1.1°C (30°F) [RH = 96%]
Pressure (altimeter): 30.22 inches Hg (1023.5 mb)
[Sea-level pressure: 1023.8 mb]
Winds: calm
Visibility: 0.50 miles (0.80 km)
Ceiling: indefinite ceiling with vertical visibility of 200 feet AGL
Clouds: obscured sky
Weather: FZFG  (freezing fog)

METAR text: KBGR 260645Z 00000KT 1/2SM R15/1800V2000FT FZFG VV002 M01/M01 A3022 RMK AO2 T10061011
Conditions at: KBGR (BANGOR , ME, US) observed 0645 UTC 26 November 2020
Temperature: -0.6°C (31°F)
Dewpoint: -1.1°C (30°F) [RH = 96%]
Pressure (altimeter): 30.22 inches Hg (1023.5 mb)
Winds: calm
Visibility: 0.50 miles (0.80 km)
Ceiling: indefinite ceiling with vertical visibility of 200 feet AGL
Clouds: obscured sky
Weather: FZFG  (freezing fog)

Forecast for: KBGR (BANGOR , ME, US)
Text: KBGR 260539Z 2606/2706 VRB02KT 1SM BR OVC003
Forecast period: 0600 to 1200 UTC 26 November 2020
Forecast type: FROM: standard forecast or significant change
Winds: variable direction winds at 2 MPH (2 knots; 1.0 m/s)
Visibility: 1.00 miles (1.61 km)
Ceiling: 300 feet AGL
Clouds: overcast cloud deck at 300 feet AGL
Weather: BR  (mist)
Text: FM261200 VRB02KT 2SM -RA BR OVC006
Forecast period: 1200 to 2300 UTC 26 November 2020
Forecast type: FROM: standard forecast or significant change
Winds: variable direction winds at 2 MPH (2 knots; 1.0 m/s)
Visibility: 2.00 miles (3.22 km)
Ceiling: 600 feet AGL
Clouds: overcast cloud deck at 600 feet AGL
Weather: -RA BR  (light rain, mist)
Text: FM262300 VRB02KT 1SM -RA BR OVC003 WS020/20030KT
Forecast period: 2300 UTC 26 November 2020 to 0400 UTC 27 November 2020
Forecast type: FROM: standard forecast or significant change
Winds: variable direction winds at 2 MPH (2 knots; 1.0 m/s)
Visibility: 1.00 miles (1.61 km)
Ceiling: 300 feet AGL
Clouds: overcast cloud deck at 300 feet AGL
Wind Shear: at 2000 feet ( 610 m) AGL, from the SSW (200 degrees) at 34 MPH (30 knots; 15.6 m/s)
Weather: -RA BR  (light rain, mist)
Text: FM270400 VRB02KT 3/4SM BR VCSH OVC002
Forecast period: 0400 to 0600 UTC 27 November 2020
Forecast type: FROM: standard forecast or significant change
Winds: variable direction winds at 2 MPH (2 knots; 1.0 m/s)
Visibility: 0.75 miles (1.21 km)
Ceiling: 200 feet AGL
Clouds: overcast cloud deck at 200 feet AGL
Weather: BR VCSH  (mist, showers in vicinity)